sensor_id;sensor_type;location;lat;lon;timestamp;P1;durP1;ratioP1;P2;durP2;ratioP2
32321;SDS011;61553;48.994;8.940;2023-03-21T00:00:34;6.07;;;3.10;;
32321;SDS011;61553;48.994;8.940;2023-03-21T00:02:59;8.70;;;3.47;;
32321;SDS011;61553;48.994;8.940;2023-03-21T00:05:25;6.78;;;2.90;;
32321;SDS011;61553;48.994;8.940;2023-03-21T00:07:51;6.13;;;3.00;;
32321;SDS011;61553;48.994;8.940;2023-03-21T00:10:17;7.78;;;3.67;;
32321;SDS011;61553;48.994;8.940;2023-03-21T00:12:43;7.05;;;3.65;;
32321;SDS011;61553;48.994;8.940;2023-03-21T00:15:09;7.05;;;3.17;;
32321;SDS011;61553;48.994;8.940;2023-03-21T00:17:36;7.88;;;3.67;;
32321;SDS011;61553;48.994;8.940;2023-03-21T00:20:04;6.53;;;3.67;;
32321;SDS011;61553;48.994;8.940;2023-03-21T00:22:39;10.07;;;4.72;;
32321;SDS011;61553;48.994;8.940;2023-03-21T00:25:06;7.43;;;3.50;;
32321;SDS011;61553;48.994;8.940;2023-03-21T00:27:32;10.52;;;4.10;;
32321;SDS011;61553;48.994;8.940;2023-03-21T00:29:58;8.60;;;3.97;;
32321;SDS011;61553;48.994;8.940;2023-03-21T00:32:24;6.72;;;4.28;;
32321;SDS011;61553;48.994;8.940;2023-03-21T00:34:50;10.18;;;4.35;;
32321;SDS011;61553;48.994;8.940;2023-03-21T00:37:16;9.07;;;4.03;;
32321;SDS011;61553;48.994;8.940;2023-03-21T00:39:43;7.32;;;4.05;;
32321;SDS011;61553;48.994;8.940;2023-03-21T00:42:13;7.20;;;4.47;;
32321;SDS011;61553;48.994;8.940;2023-03-21T00:44:39;6.18;;;3.60;;
32321;SDS011;61553;48.994;8.940;2023-03-21T00:47:05;14.40;;;5.32;;
32321;SDS011;61553;48.994;8.940;2023-03-21T00:49:31;8.27;;;4.53;;
32321;SDS011;61553;48.994;8.940;2023-03-21T00:52:03;9.23;;;4.53;;
32321;SDS011;61553;48.994;8.940;2023-03-21T00:54:31;6.88;;;3.95;;
32321;SDS011;61553;48.994;8.940;2023-03-21T00:56:57;10.82;;;4.43;;
32321;SDS011;61553;48.994;8.940;2023-03-21T00:59:23;8.40;;;4.10;;
32321;SDS011;61553;48.994;8.940;2023-03-21T01:01:48;8.07;;;4.07;;
32321;SDS011;61553;48.994;8.940;2023-03-21T01:04:17;8.30;;;4.50;;
32321;SDS011;61553;48.994;8.940;2023-03-21T01:06:45;9.50;;;4.72;;
32321;SDS011;61553;48.994;8.940;2023-03-21T01:09:12;12.02;;;4.57;;
32321;SDS011;61553;48.994;8.940;2023-03-21T01:11:40;8.38;;;4.90;;
32321;SDS011;61553;48.994;8.940;2023-03-21T01:14:06;8.95;;;4.63;;
32321;SDS011;61553;48.994;8.940;2023-03-21T01:16:32;7.25;;;4.10;;
32321;SDS011;61553;48.994;8.940;2023-03-21T01:18:58;7.28;;;4.10;;
32321;SDS011;61553;48.994;8.940;2023-03-21T01:21:24;8.10;;;3.83;;
32321;SDS011;61553;48.994;8.940;2023-03-21T01:23:50;8.43;;;2.95;;
32321;SDS011;61553;48.994;8.940;2023-03-21T01:26:16;7.00;;;3.72;;
32321;SDS011;61553;48.994;8.940;2023-03-21T01:28:42;8.30;;;3.15;;
32321;SDS011;61553;48.994;8.940;2023-03-21T01:31:09;5.05;;;2.70;;
32321;SDS011;61553;48.994;8.940;2023-03-21T01:33:36;8.18;;;2.67;;
32321;SDS011;61553;48.994;8.940;2023-03-21T01:36:02;5.60;;;2.78;;
32321;SDS011;61553;48.994;8.940;2023-03-21T01:38:28;6.18;;;2.90;;
32321;SDS011;61553;48.994;8.940;2023-03-21T01:40:53;6.90;;;2.42;;
32321;SDS011;61553;48.994;8.940;2023-03-21T01:43:24;8.20;;;3.20;;
32321;SDS011;61553;48.994;8.940;2023-03-21T01:48:23;7.00;;;3.55;;
32321;SDS011;61553;48.994;8.940;2023-03-21T01:50:51;6.45;;;3.28;;
32321;SDS011;61553;48.994;8.940;2023-03-21T01:53:18;8.05;;;3.03;;
32321;SDS011;61553;48.994;8.940;2023-03-21T01:55:46;7.53;;;2.85;;
32321;SDS011;61553;48.994;8.940;2023-03-21T01:58:13;7.63;;;3.20;;
32321;SDS011;61553;48.994;8.940;2023-03-21T02:00:42;6.47;;;3.90;;
32321;SDS011;61553;48.994;8.940;2023-03-21T02:03:08;6.40;;;3.17;;
32321;SDS011;61553;48.994;8.940;2023-03-21T02:08:26;6.22;;;3.03;;
32321;SDS011;61553;48.994;8.940;2023-03-21T02:10:53;6.35;;;3.35;;
32321;SDS011;61553;48.994;8.940;2023-03-21T02:13:19;5.10;;;2.75;;
32321;SDS011;61553;48.994;8.940;2023-03-21T02:15:47;6.50;;;3.60;;
32321;SDS011;61553;48.994;8.940;2023-03-21T02:18:29;7.47;;;3.60;;
32321;SDS011;61553;48.994;8.940;2023-03-21T02:21:23;6.78;;;3.80;;
32321;SDS011;61553;48.994;8.940;2023-03-21T02:32:46;4.53;;;2.50;;
32321;SDS011;61553;48.994;8.940;2023-03-21T02:38:11;6.30;;;3.00;;
32321;SDS011;61553;48.994;8.940;2023-03-21T02:40:44;5.97;;;3.25;;
32321;SDS011;61553;48.994;8.940;2023-03-21T02:43:21;5.68;;;3.63;;
32321;SDS011;61553;48.994;8.940;2023-03-21T02:45:56;8.18;;;3.15;;
32321;SDS011;61553;48.994;8.940;2023-03-21T02:48:42;7.47;;;3.15;;
32321;SDS011;61553;48.994;8.940;2023-03-21T02:51:24;6.45;;;3.42;;
32321;SDS011;61553;48.994;8.940;2023-03-21T02:53:54;8.40;;;3.20;;
32321;SDS011;61553;48.994;8.940;2023-03-21T02:56:29;7.72;;;3.50;;
32321;SDS011;61553;48.994;8.940;2023-03-21T02:58:57;5.72;;;3.35;;
32321;SDS011;61553;48.994;8.940;2023-03-21T03:01:24;10.40;;;4.88;;
32321;SDS011;61553;48.994;8.940;2023-03-21T03:03:51;12.27;;;4.00;;
32321;SDS011;61553;48.994;8.940;2023-03-21T03:06:18;6.35;;;3.50;;
32321;SDS011;61553;48.994;8.940;2023-03-21T03:11:34;5.90;;;2.70;;
32321;SDS011;61553;48.994;8.940;2023-03-21T03:18:08;5.13;;;2.58;;
32321;SDS011;61553;48.994;8.940;2023-03-21T03:20:23;6.25;;;2.35;;
32321;SDS011;61553;48.994;8.940;2023-03-21T03:23:03;5.40;;;2.65;;
32321;SDS011;61553;48.994;8.940;2023-03-21T03:25:41;10.32;;;2.83;;
32321;SDS011;61553;48.994;8.940;2023-03-21T03:28:13;5.32;;;2.88;;
32321;SDS011;61553;48.994;8.940;2023-03-21T03:30:41;5.30;;;3.10;;
32321;SDS011;61553;48.994;8.940;2023-03-21T03:33:08;6.47;;;3.15;;
32321;SDS011;61553;48.994;8.940;2023-03-21T03:35:35;9.02;;;3.10;;
32321;SDS011;61553;48.994;8.940;2023-03-21T03:38:02;5.05;;;2.95;;
32321;SDS011;61553;48.994;8.940;2023-03-21T03:40:34;9.02;;;3.50;;
32321;SDS011;61553;48.994;8.940;2023-03-21T03:43:15;6.85;;;2.67;;
32321;SDS011;61553;48.994;8.940;2023-03-21T03:45:48;8.07;;;3.38;;
32321;SDS011;61553;48.994;8.940;2023-03-21T03:48:21;5.25;;;3.08;;
32321;SDS011;61553;48.994;8.940;2023-03-21T03:50:55;4.75;;;2.80;;
32321;SDS011;61553;48.994;8.940;2023-03-21T03:53:32;8.32;;;2.80;;
32321;SDS011;61553;48.994;8.940;2023-03-21T03:56:02;7.82;;;2.50;;
32321;SDS011;61553;48.994;8.940;2023-03-21T03:58:29;5.03;;;2.90;;
32321;SDS011;61553;48.994;8.940;2023-03-21T04:00:56;6.28;;;2.97;;
32321;SDS011;61553;48.994;8.940;2023-03-21T04:03:23;7.78;;;2.75;;
32321;SDS011;61553;48.994;8.940;2023-03-21T04:05:48;6.07;;;3.17;;
32321;SDS011;61553;48.994;8.940;2023-03-21T04:08:14;7.07;;;3.35;;
32321;SDS011;61553;48.994;8.940;2023-03-21T04:10:41;8.35;;;3.13;;
32321;SDS011;61553;48.994;8.940;2023-03-21T04:13:07;7.30;;;3.40;;
32321;SDS011;61553;48.994;8.940;2023-03-21T04:15:33;7.50;;;3.20;;
32321;SDS011;61553;48.994;8.940;2023-03-21T04:17:59;4.82;;;2.70;;
32321;SDS011;61553;48.994;8.940;2023-03-21T04:20:25;8.05;;;3.33;;
32321;SDS011;61553;48.994;8.940;2023-03-21T04:22:50;5.07;;;2.92;;
32321;SDS011;61553;48.994;8.940;2023-03-21T04:25:18;8.65;;;4.82;;
32321;SDS011;61553;48.994;8.940;2023-03-21T04:27:44;6.47;;;3.58;;
32321;SDS011;61553;48.994;8.940;2023-03-21T04:30:12;5.82;;;3.53;;
32321;SDS011;61553;48.994;8.940;2023-03-21T04:32:39;8.88;;;3.50;;
32321;SDS011;61553;48.994;8.940;2023-03-21T04:35:05;4.97;;;3.33;;
32321;SDS011;61553;48.994;8.940;2023-03-21T04:37:32;8.25;;;3.78;;
32321;SDS011;61553;48.994;8.940;2023-03-21T04:39:59;40.38;;;13.80;;
32321;SDS011;61553;48.994;8.940;2023-03-21T04:42:27;15.80;;;7.97;;
32321;SDS011;61553;48.994;8.940;2023-03-21T04:44:53;19.65;;;7.15;;
32321;SDS011;61553;48.994;8.940;2023-03-21T04:47:18;21.58;;;8.43;;
32321;SDS011;61553;48.994;8.940;2023-03-21T04:49:46;14.07;;;6.80;;
32321;SDS011;61553;48.994;8.940;2023-03-21T04:52:15;10.13;;;4.57;;
32321;SDS011;61553;48.994;8.940;2023-03-21T04:54:41;8.57;;;4.15;;
32321;SDS011;61553;48.994;8.940;2023-03-21T04:57:07;8.48;;;3.78;;
32321;SDS011;61553;48.994;8.940;2023-03-21T04:59:33;7.75;;;3.38;;
32321;SDS011;61553;48.994;8.940;2023-03-21T05:01:59;8.00;;;4.35;;
32321;SDS011;61553;48.994;8.940;2023-03-21T05:04:25;7.40;;;3.90;;
32321;SDS011;61553;48.994;8.940;2023-03-21T05:06:52;9.30;;;4.28;;
32321;SDS011;61553;48.994;8.940;2023-03-21T05:09:18;8.45;;;3.65;;
32321;SDS011;61553;48.994;8.940;2023-03-21T05:11:46;8.35;;;4.20;;
32321;SDS011;61553;48.994;8.940;2023-03-21T05:14:16;14.98;;;4.30;;
32321;SDS011;61553;48.994;8.940;2023-03-21T05:16:46;8.25;;;4.32;;
32321;SDS011;61553;48.994;8.940;2023-03-21T05:19:16;9.00;;;4.07;;
32321;SDS011;61553;48.994;8.940;2023-03-21T05:22:00;6.40;;;3.95;;
32321;SDS011;61553;48.994;8.940;2023-03-21T05:24:28;6.68;;;3.53;;
32321;SDS011;61553;48.994;8.940;2023-03-21T05:26:55;5.68;;;3.55;;
32321;SDS011;61553;48.994;8.940;2023-03-21T05:29:28;8.30;;;4.60;;
32321;SDS011;61553;48.994;8.940;2023-03-21T05:31:55;11.02;;;5.22;;
32321;SDS011;61553;48.994;8.940;2023-03-21T05:34:22;24.10;;;15.07;;
32321;SDS011;61553;48.994;8.940;2023-03-21T05:36:48;15.57;;;10.80;;
32321;SDS011;61553;48.994;8.940;2023-03-21T05:39:14;11.93;;;6.53;;
32321;SDS011;61553;48.994;8.940;2023-03-21T05:41:40;9.88;;;4.65;;
32321;SDS011;61553;48.994;8.940;2023-03-21T05:44:05;8.38;;;5.05;;
32321;SDS011;61553;48.994;8.940;2023-03-21T05:46:31;9.20;;;5.00;;
32321;SDS011;61553;48.994;8.940;2023-03-21T05:48:56;7.25;;;4.50;;
32321;SDS011;61553;48.994;8.940;2023-03-21T05:51:22;8.38;;;5.20;;
32321;SDS011;61553;48.994;8.940;2023-03-21T05:53:48;8.65;;;4.65;;
32321;SDS011;61553;48.994;8.940;2023-03-21T05:56:13;9.98;;;4.32;;
32321;SDS011;61553;48.994;8.940;2023-03-21T05:58:39;6.97;;;4.20;;
32321;SDS011;61553;48.994;8.940;2023-03-21T06:01:05;10.32;;;5.00;;
32321;SDS011;61553;48.994;8.940;2023-03-21T06:03:31;14.45;;;8.15;;
32321;SDS011;61553;48.994;8.940;2023-03-21T06:05:56;17.55;;;10.85;;
32321;SDS011;61553;48.994;8.940;2023-03-21T06:08:22;15.68;;;9.77;;
32321;SDS011;61553;48.994;8.940;2023-03-21T06:10:48;14.73;;;8.98;;
32321;SDS011;61553;48.994;8.940;2023-03-21T06:13:13;14.45;;;6.72;;
32321;SDS011;61553;48.994;8.940;2023-03-21T06:15:40;11.20;;;5.28;;
32321;SDS011;61553;48.994;8.940;2023-03-21T06:18:05;22.75;;;10.15;;
32321;SDS011;61553;48.994;8.940;2023-03-21T06:20:31;9.90;;;5.18;;
32321;SDS011;61553;48.994;8.940;2023-03-21T06:22:57;8.63;;;5.03;;
32321;SDS011;61553;48.994;8.940;2023-03-21T06:25:22;15.20;;;6.95;;
32321;SDS011;61553;48.994;8.940;2023-03-21T06:27:48;25.08;;;11.23;;
32321;SDS011;61553;48.994;8.940;2023-03-21T06:30:14;24.20;;;11.40;;
32321;SDS011;61553;48.994;8.940;2023-03-21T06:32:40;29.90;;;15.40;;
32321;SDS011;61553;48.994;8.940;2023-03-21T06:35:06;25.50;;;11.35;;
32321;SDS011;61553;48.994;8.940;2023-03-21T06:37:31;21.90;;;10.50;;
32321;SDS011;61553;48.994;8.940;2023-03-21T06:39:57;32.17;;;16.65;;
32321;SDS011;61553;48.994;8.940;2023-03-21T06:42:22;20.15;;;11.57;;
32321;SDS011;61553;48.994;8.940;2023-03-21T06:44:48;17.33;;;8.40;;
32321;SDS011;61553;48.994;8.940;2023-03-21T06:47:14;18.98;;;9.95;;
32321;SDS011;61553;48.994;8.940;2023-03-21T06:49:40;22.38;;;10.63;;
32321;SDS011;61553;48.994;8.940;2023-03-21T06:52:07;15.77;;;8.93;;
32321;SDS011;61553;48.994;8.940;2023-03-21T06:54:33;17.00;;;9.05;;
32321;SDS011;61553;48.994;8.940;2023-03-21T06:57:00;15.82;;;8.77;;
32321;SDS011;61553;48.994;8.940;2023-03-21T06:59:25;10.73;;;5.45;;
32321;SDS011;61553;48.994;8.940;2023-03-21T07:01:51;12.57;;;5.57;;
32321;SDS011;61553;48.994;8.940;2023-03-21T07:04:17;8.27;;;4.38;;
32321;SDS011;61553;48.994;8.940;2023-03-21T07:06:43;11.43;;;5.57;;
32321;SDS011;61553;48.994;8.940;2023-03-21T07:09:08;7.55;;;3.75;;
32321;SDS011;61553;48.994;8.940;2023-03-21T07:11:35;6.55;;;3.70;;
32321;SDS011;61553;48.994;8.940;2023-03-21T07:14:01;6.88;;;3.70;;
32321;SDS011;61553;48.994;8.940;2023-03-21T07:16:27;7.85;;;3.25;;
32321;SDS011;61553;48.994;8.940;2023-03-21T07:18:52;8.07;;;3.38;;
32321;SDS011;61553;48.994;8.940;2023-03-21T07:21:19;5.60;;;3.15;;
32321;SDS011;61553;48.994;8.940;2023-03-21T07:23:44;5.70;;;3.05;;
32321;SDS011;61553;48.994;8.940;2023-03-21T07:26:11;5.80;;;3.13;;
32321;SDS011;61553;48.994;8.940;2023-03-21T07:28:36;5.38;;;2.72;;
32321;SDS011;61553;48.994;8.940;2023-03-21T07:31:03;5.65;;;3.13;;
32321;SDS011;61553;48.994;8.940;2023-03-21T07:33:30;5.90;;;2.85;;
32321;SDS011;61553;48.994;8.940;2023-03-21T07:35:57;7.25;;;2.60;;
32321;SDS011;61553;48.994;8.940;2023-03-21T07:38:23;5.53;;;3.20;;
32321;SDS011;61553;48.994;8.940;2023-03-21T07:40:49;6.13;;;2.90;;
32321;SDS011;61553;48.994;8.940;2023-03-21T07:43:16;4.47;;;2.88;;
32321;SDS011;61553;48.994;8.940;2023-03-21T07:45:42;5.05;;;2.55;;
32321;SDS011;61553;48.994;8.940;2023-03-21T07:48:08;6.95;;;2.75;;
32321;SDS011;61553;48.994;8.940;2023-03-21T07:50:36;6.25;;;2.75;;
32321;SDS011;61553;48.994;8.940;2023-03-21T07:53:03;10.93;;;3.10;;
32321;SDS011;61553;48.994;8.940;2023-03-21T07:55:28;8.93;;;3.15;;
32321;SDS011;61553;48.994;8.940;2023-03-21T07:57:55;8.80;;;4.50;;
32321;SDS011;61553;48.994;8.940;2023-03-21T08:00:21;8.30;;;3.78;;
32321;SDS011;61553;48.994;8.940;2023-03-21T08:02:51;7.03;;;3.42;;
32321;SDS011;61553;48.994;8.940;2023-03-21T08:05:21;4.37;;;2.37;;
32321;SDS011;61553;48.994;8.940;2023-03-21T08:07:48;5.75;;;2.50;;
32321;SDS011;61553;48.994;8.940;2023-03-21T08:10:13;7.20;;;2.60;;
32321;SDS011;61553;48.994;8.940;2023-03-21T08:12:40;14.52;;;8.35;;
32321;SDS011;61553;48.994;8.940;2023-03-21T08:15:06;4.57;;;2.22;;
32321;SDS011;61553;48.994;8.940;2023-03-21T08:17:32;5.20;;;2.03;;
32321;SDS011;61553;48.994;8.940;2023-03-21T08:20:00;5.03;;;2.20;;
32321;SDS011;61553;48.994;8.940;2023-03-21T08:22:25;4.65;;;2.00;;
32321;SDS011;61553;48.994;8.940;2023-03-21T08:24:51;3.33;;;2.00;;
32321;SDS011;61553;48.994;8.940;2023-03-21T08:27:17;5.53;;;1.80;;
32321;SDS011;61553;48.994;8.940;2023-03-21T08:29:44;4.53;;;2.03;;
32321;SDS011;61553;48.994;8.940;2023-03-21T08:32:10;4.88;;;1.67;;
32321;SDS011;61553;48.994;8.940;2023-03-21T08:34:35;4.80;;;1.63;;
32321;SDS011;61553;48.994;8.940;2023-03-21T08:37:01;4.85;;;1.90;;
32321;SDS011;61553;48.994;8.940;2023-03-21T08:39:28;3.75;;;1.70;;
32321;SDS011;61553;48.994;8.940;2023-03-21T08:41:53;2.45;;;1.45;;
32321;SDS011;61553;48.994;8.940;2023-03-21T08:44:19;4.70;;;1.70;;
32321;SDS011;61553;48.994;8.940;2023-03-21T08:46:46;4.95;;;1.95;;
32321;SDS011;61553;48.994;8.940;2023-03-21T08:49:11;5.65;;;2.05;;
32321;SDS011;61553;48.994;8.940;2023-03-21T08:51:37;4.88;;;2.05;;
32321;SDS011;61553;48.994;8.940;2023-03-21T08:54:03;6.05;;;1.80;;
32321;SDS011;61553;48.994;8.940;2023-03-21T08:56:28;4.97;;;1.65;;
32321;SDS011;61553;48.994;8.940;2023-03-21T08:58:54;4.32;;;1.77;;
32321;SDS011;61553;48.994;8.940;2023-03-21T09:01:20;2.70;;;1.40;;
32321;SDS011;61553;48.994;8.940;2023-03-21T09:03:46;3.92;;;1.58;;
32321;SDS011;61553;48.994;8.940;2023-03-21T09:06:11;22.08;;;3.55;;
32321;SDS011;61553;48.994;8.940;2023-03-21T09:08:38;6.80;;;2.47;;
32321;SDS011;61553;48.994;8.940;2023-03-21T09:11:06;4.07;;;1.92;;
32321;SDS011;61553;48.994;8.940;2023-03-21T09:13:32;3.47;;;1.75;;
32321;SDS011;61553;48.994;8.940;2023-03-21T09:15:58;4.90;;;1.90;;
32321;SDS011;61553;48.994;8.940;2023-03-21T09:18:25;5.97;;;1.70;;
32321;SDS011;61553;48.994;8.940;2023-03-21T09:21:08;6.68;;;1.33;;
32321;SDS011;61553;48.994;8.940;2023-03-21T09:23:41;4.95;;;1.55;;
32321;SDS011;61553;48.994;8.940;2023-03-21T09:26:09;6.13;;;1.80;;
32321;SDS011;61553;48.994;8.940;2023-03-21T09:28:35;4.32;;;1.45;;
32321;SDS011;61553;48.994;8.940;2023-03-21T09:31:03;6.18;;;1.80;;
32321;SDS011;61553;48.994;8.940;2023-03-21T09:33:29;5.50;;;1.67;;
32321;SDS011;61553;48.994;8.940;2023-03-21T09:35:55;4.95;;;1.75;;
32321;SDS011;61553;48.994;8.940;2023-03-21T09:38:24;5.78;;;1.80;;
32321;SDS011;61553;48.994;8.940;2023-03-21T09:40:56;4.45;;;1.40;;
32321;SDS011;61553;48.994;8.940;2023-03-21T09:46:30;3.75;;;1.40;;
32321;SDS011;61553;48.994;8.940;2023-03-21T09:51:49;3.03;;;1.38;;
32321;SDS011;61553;48.994;8.940;2023-03-21T09:54:22;3.78;;;1.13;;
32321;SDS011;61553;48.994;8.940;2023-03-21T09:56:51;7.05;;;1.70;;
32321;SDS011;61553;48.994;8.940;2023-03-21T09:59:35;4.82;;;2.05;;
32321;SDS011;61553;48.994;8.940;2023-03-21T10:02:20;5.43;;;1.70;;
32321;SDS011;61553;48.994;8.940;2023-03-21T10:05:00;6.63;;;1.70;;
32321;SDS011;61553;48.994;8.940;2023-03-21T10:07:33;4.82;;;1.88;;
32321;SDS011;61553;48.994;8.940;2023-03-21T10:10:05;6.00;;;1.60;;
32321;SDS011;61553;48.994;8.940;2023-03-21T10:12:36;5.78;;;1.65;;
32321;SDS011;61553;48.994;8.940;2023-03-21T10:15:02;6.05;;;1.63;;
32321;SDS011;61553;48.994;8.940;2023-03-21T10:17:33;4.20;;;1.80;;
32321;SDS011;61553;48.994;8.940;2023-03-21T10:22:53;6.20;;;1.50;;
32321;SDS011;61553;48.994;8.940;2023-03-21T10:25:42;5.68;;;1.50;;
32321;SDS011;61553;48.994;8.940;2023-03-21T10:28:08;4.63;;;1.70;;
32321;SDS011;61553;48.994;8.940;2023-03-21T10:30:47;4.97;;;1.60;;
32321;SDS011;61553;48.994;8.940;2023-03-21T10:33:19;4.50;;;1.30;;
32321;SDS011;61553;48.994;8.940;2023-03-21T10:35:50;4.97;;;1.52;;
32321;SDS011;61553;48.994;8.940;2023-03-21T10:38:20;6.50;;;1.27;;
32321;SDS011;61553;48.994;8.940;2023-03-21T10:40:49;3.55;;;1.33;;
32321;SDS011;61553;48.994;8.940;2023-03-21T10:45:44;4.55;;;1.63;;
32321;SDS011;61553;48.994;8.940;2023-03-21T10:48:11;4.25;;;2.13;;
32321;SDS011;61553;48.994;8.940;2023-03-21T10:50:37;3.80;;;1.73;;
32321;SDS011;61553;48.994;8.940;2023-03-21T10:53:05;6.10;;;1.70;;
32321;SDS011;61553;48.994;8.940;2023-03-21T10:55:42;3.70;;;1.13;;
32321;SDS011;61553;48.994;8.940;2023-03-21T10:58:17;4.18;;;1.13;;
32321;SDS011;61553;48.994;8.940;2023-03-21T11:00:49;2.67;;;1.13;;
32321;SDS011;61553;48.994;8.940;2023-03-21T11:03:31;10.77;;;1.70;;
32321;SDS011;61553;48.994;8.940;2023-03-21T11:06:22;5.50;;;2.00;;
32321;SDS011;61553;48.994;8.940;2023-03-21T11:08:50;2.65;;;1.30;;
32321;SDS011;61553;48.994;8.940;2023-03-21T11:11:21;2.88;;;1.35;;
32321;SDS011;61553;48.994;8.940;2023-03-21T11:13:57;5.82;;;1.33;;
32321;SDS011;61553;48.994;8.940;2023-03-21T11:16:41;3.53;;;1.30;;
32321;SDS011;61553;48.994;8.940;2023-03-21T11:19:12;4.38;;;1.20;;
32321;SDS011;61553;48.994;8.940;2023-03-21T11:21:40;3.92;;;1.10;;
32321;SDS011;61553;48.994;8.940;2023-03-21T11:24:08;3.17;;;1.10;;
32321;SDS011;61553;48.994;8.940;2023-03-21T11:31:49;2.60;;;1.17;;
32321;SDS011;61553;48.994;8.940;2023-03-21T11:34:30;5.30;;;0.80;;
32321;SDS011;61553;48.994;8.940;2023-03-21T11:37:03;3.35;;;1.30;;
32321;SDS011;61553;48.994;8.940;2023-03-21T11:41:55;3.35;;;1.30;;
32321;SDS011;61553;48.994;8.940;2023-03-21T11:44:29;4.43;;;1.17;;
32321;SDS011;61553;48.994;8.940;2023-03-21T11:46:59;4.35;;;1.27;;
32321;SDS011;61553;48.994;8.940;2023-03-21T11:49:25;4.68;;;1.65;;
32321;SDS011;61553;48.994;8.940;2023-03-21T11:51:58;5.30;;;1.60;;
32321;SDS011;61553;48.994;8.940;2023-03-21T12:05:53;3.78;;;1.17;;
32321;SDS011;61553;48.994;8.940;2023-03-21T12:08:38;4.70;;;1.58;;
32321;SDS011;61553;48.994;8.940;2023-03-21T12:11:28;6.70;;;1.48;;
32321;SDS011;61553;48.994;8.940;2023-03-21T12:16:46;4.53;;;1.50;;
32321;SDS011;61553;48.994;8.940;2023-03-21T12:19:22;4.10;;;1.48;;
32321;SDS011;61553;48.994;8.940;2023-03-21T12:22:14;4.93;;;1.60;;
32321;SDS011;61553;48.994;8.940;2023-03-21T12:24:52;5.68;;;2.05;;
32321;SDS011;61553;48.994;8.940;2023-03-21T12:27:32;7.75;;;2.10;;
32321;SDS011;61553;48.994;8.940;2023-03-21T12:33:18;5.93;;;2.42;;
32321;SDS011;61553;48.994;8.940;2023-03-21T12:38:44;5.70;;;2.25;;
32321;SDS011;61553;48.994;8.940;2023-03-21T12:41:23;7.22;;;2.50;;
32321;SDS011;61553;48.994;8.940;2023-03-21T12:43:55;5.50;;;2.70;;
32321;SDS011;61553;48.994;8.940;2023-03-21T12:46:33;5.38;;;2.20;;
32321;SDS011;61553;48.994;8.940;2023-03-21T12:51:36;4.72;;;1.95;;
32321;SDS011;61553;48.994;8.940;2023-03-21T12:54:15;4.20;;;1.92;;
32321;SDS011;61553;48.994;8.940;2023-03-21T12:56:56;8.85;;;1.85;;
32321;SDS011;61553;48.994;8.940;2023-03-21T13:02:40;4.13;;;1.73;;
32321;SDS011;61553;48.994;8.940;2023-03-21T13:05:03;4.88;;;2.25;;
32321;SDS011;61553;48.994;8.940;2023-03-21T13:07:44;5.80;;;2.70;;
32321;SDS011;61553;48.994;8.940;2023-03-21T13:10:17;9.38;;;2.92;;
32321;SDS011;61553;48.994;8.940;2023-03-21T13:20:48;9.88;;;2.88;;
32321;SDS011;61553;48.994;8.940;2023-03-21T13:23:21;6.13;;;2.22;;
32321;SDS011;61553;48.994;8.940;2023-03-21T13:25:48;4.57;;;2.38;;
32321;SDS011;61553;48.994;8.940;2023-03-21T13:28:20;5.43;;;2.58;;
32321;SDS011;61553;48.994;8.940;2023-03-21T13:30:50;6.45;;;2.28;;
32321;SDS011;61553;48.994;8.940;2023-03-21T13:33:20;7.22;;;3.22;;
32321;SDS011;61553;48.994;8.940;2023-03-21T13:35:59;6.07;;;2.67;;
32321;SDS011;61553;48.994;8.940;2023-03-21T13:38:31;6.38;;;2.33;;
32321;SDS011;61553;48.994;8.940;2023-03-21T13:43:41;6.78;;;2.20;;
32321;SDS011;61553;48.994;8.940;2023-03-21T13:52:00;5.65;;;2.63;;
32321;SDS011;61553;48.994;8.940;2023-03-21T13:54:47;7.45;;;2.58;;
32321;SDS011;61553;48.994;8.940;2023-03-21T13:57:20;5.70;;;2.23;;
32321;SDS011;61553;48.994;8.940;2023-03-21T14:00:19;5.28;;;2.45;;
32321;SDS011;61553;48.994;8.940;2023-03-21T14:02:59;5.18;;;2.17;;
32321;SDS011;61553;48.994;8.940;2023-03-21T14:05:30;5.20;;;2.08;;
32321;SDS011;61553;48.994;8.940;2023-03-21T14:07:59;4.30;;;2.40;;
32321;SDS011;61553;48.994;8.940;2023-03-21T14:10:37;5.40;;;2.20;;
32321;SDS011;61553;48.994;8.940;2023-03-21T14:13:07;6.90;;;2.35;;
32321;SDS011;61553;48.994;8.940;2023-03-21T14:16:17;6.05;;;2.30;;
32321;SDS011;61553;48.994;8.940;2023-03-21T14:18:45;3.28;;;2.03;;
32321;SDS011;61553;48.994;8.940;2023-03-21T14:21:20;6.38;;;2.67;;
32321;SDS011;61553;48.994;8.940;2023-03-21T14:24:21;6.50;;;2.30;;
32321;SDS011;61553;48.994;8.940;2023-03-21T14:26:50;5.95;;;2.33;;
32321;SDS011;61553;48.994;8.940;2023-03-21T14:29:25;4.65;;;2.20;;
32321;SDS011;61553;48.994;8.940;2023-03-21T14:31:55;5.20;;;2.30;;
32321;SDS011;61553;48.994;8.940;2023-03-21T14:34:21;6.60;;;2.10;;
32321;SDS011;61553;48.994;8.940;2023-03-21T14:36:48;4.22;;;1.98;;
32321;SDS011;61553;48.994;8.940;2023-03-21T14:39:16;5.40;;;2.25;;
32321;SDS011;61553;48.994;8.940;2023-03-21T14:41:46;5.82;;;2.38;;
32321;SDS011;61553;48.994;8.940;2023-03-21T14:46:50;6.00;;;2.95;;
32321;SDS011;61553;48.994;8.940;2023-03-21T14:51:51;5.75;;;2.42;;
32321;SDS011;61553;48.994;8.940;2023-03-21T14:54:18;5.20;;;2.10;;
32321;SDS011;61553;48.994;8.940;2023-03-21T14:56:46;5.93;;;2.47;;
32321;SDS011;61553;48.994;8.940;2023-03-21T14:59:15;4.28;;;2.22;;
32321;SDS011;61553;48.994;8.940;2023-03-21T15:01:44;7.30;;;2.55;;
32321;SDS011;61553;48.994;8.940;2023-03-21T15:04:11;4.32;;;2.00;;
32321;SDS011;61553;48.994;8.940;2023-03-21T15:06:52;6.18;;;1.88;;
32321;SDS011;61553;48.994;8.940;2023-03-21T15:09:27;7.13;;;2.30;;
32321;SDS011;61553;48.994;8.940;2023-03-21T15:11:55;4.37;;;2.17;;
32321;SDS011;61553;48.994;8.940;2023-03-21T15:14:23;5.95;;;2.00;;
32321;SDS011;61553;48.994;8.940;2023-03-21T15:16:52;4.80;;;1.95;;
32321;SDS011;61553;48.994;8.940;2023-03-21T15:19:19;5.72;;;2.60;;
32321;SDS011;61553;48.994;8.940;2023-03-21T15:21:53;5.53;;;2.75;;
32321;SDS011;61553;48.994;8.940;2023-03-21T15:24:26;6.30;;;2.05;;
32321;SDS011;61553;48.994;8.940;2023-03-21T15:27:02;4.03;;;2.25;;
32321;SDS011;61553;48.994;8.940;2023-03-21T15:29:30;4.85;;;2.20;;
32321;SDS011;61553;48.994;8.940;2023-03-21T15:31:58;4.82;;;2.13;;
32321;SDS011;61553;48.994;8.940;2023-03-21T15:34:27;4.35;;;2.10;;
32321;SDS011;61553;48.994;8.940;2023-03-21T15:37:05;6.05;;;2.40;;
32321;SDS011;61553;48.994;8.940;2023-03-21T15:39:33;3.80;;;2.10;;
32321;SDS011;61553;48.994;8.940;2023-03-21T15:44:30;5.00;;;2.22;;
32321;SDS011;61553;48.994;8.940;2023-03-21T15:46:57;3.72;;;1.98;;
32321;SDS011;61553;48.994;8.940;2023-03-21T15:49:25;4.97;;;1.92;;
32321;SDS011;61553;48.994;8.940;2023-03-21T15:52:10;7.28;;;3.42;;
32321;SDS011;61553;48.994;8.940;2023-03-21T15:54:42;8.63;;;3.25;;
32321;SDS011;61553;48.994;8.940;2023-03-21T15:57:18;4.13;;;2.50;;
32321;SDS011;61553;48.994;8.940;2023-03-21T15:59:50;6.07;;;2.63;;
32321;SDS011;61553;48.994;8.940;2023-03-21T16:02:21;8.68;;;2.53;;
32321;SDS011;61553;48.994;8.940;2023-03-21T16:07:25;5.22;;;2.17;;
32321;SDS011;61553;48.994;8.940;2023-03-21T16:09:55;3.83;;;2.15;;
32321;SDS011;61553;48.994;8.940;2023-03-21T16:12:23;6.38;;;2.55;;
32321;SDS011;61553;48.994;8.940;2023-03-21T16:14:49;6.88;;;2.17;;
32321;SDS011;61553;48.994;8.940;2023-03-21T16:19:57;4.78;;;1.90;;
32321;SDS011;61553;48.994;8.940;2023-03-21T16:22:24;4.00;;;1.95;;
32321;SDS011;61553;48.994;8.940;2023-03-21T16:24:50;9.65;;;2.88;;
32321;SDS011;61553;48.994;8.940;2023-03-21T16:27:16;6.32;;;2.40;;
32321;SDS011;61553;48.994;8.940;2023-03-21T16:29:44;6.05;;;2.22;;
32321;SDS011;61553;48.994;8.940;2023-03-21T16:32:11;6.95;;;2.17;;
32321;SDS011;61553;48.994;8.940;2023-03-21T16:34:39;5.85;;;2.22;;
32321;SDS011;61553;48.994;8.940;2023-03-21T16:37:08;4.75;;;2.08;;